createdAt,value
2022-11-21T00:00:42.580Z,96000.72
2022-11-21T00:03:10.714Z,96001.19
2022-11-21T00:05:42.978Z,95992.13
2022-11-21T00:08:11.483Z,95989.53
2022-11-21T00:10:39.507Z,95982.47
2022-11-21T00:13:07.459Z,95984.03
2022-11-21T00:15:35.784Z,95980.47
2022-11-21T00:18:03.842Z,95985.31
2022-11-21T00:20:31.103Z,95984.03
2022-11-21T00:22:57.697Z,95991.75
2022-11-21T00:25:24.397Z,95988.66
2022-11-21T00:27:52.740Z,95990.69
2022-11-21T00:30:19.433Z,95973.91
2022-11-21T00:32:46.039Z,95976.59
2022-11-21T00:35:13.326Z,95970.91
2022-11-21T00:37:40.099Z,95962.22
2022-11-21T00:40:07.260Z,95969.22
2022-11-21T00:42:33.902Z,95963.53
2022-11-21T00:45:00.594Z,95960.34
2022-11-21T00:47:27.182Z,95960.94
2022-11-21T00:49:53.755Z,95972.31
2022-11-21T00:52:20.328Z,95963.03
2022-11-21T00:54:46.904Z,95970.28
2022-11-21T00:57:13.555Z,95957.03
2022-11-21T00:59:40.187Z,95970.19
2022-11-21T01:02:07.017Z,95965.06
2022-11-21T01:04:35.202Z,95963.78
2022-11-21T01:07:01.875Z,95964.44
2022-11-21T01:09:28.785Z,95965.09
2022-11-21T01:11:56.594Z,95961.56
2022-11-21T01:14:23.537Z,95953.28
2022-11-21T01:16:50.889Z,95957.78
2022-11-21T01:19:17.746Z,95951.34
2022-11-21T01:21:44.370Z,95952.34
2022-11-21T01:24:12.341Z,95953.03
2022-11-21T01:26:39.257Z,95951.50
2022-11-21T01:29:07.272Z,95950.41
2022-11-21T01:31:33.970Z,95950.59
2022-11-21T01:34:00.898Z,95949.75
2022-11-21T01:36:32.825Z,95938.84
2022-11-21T01:39:01.745Z,95955.25
2022-11-21T01:41:33.610Z,95943.06
2022-11-21T01:44:13.828Z,95946.31
2022-11-21T01:46:40.426Z,95941.19
2022-11-21T01:49:11.080Z,95936.06
2022-11-21T01:51:43.249Z,95930.94
2022-11-21T01:54:18.532Z,95932.16
2022-11-21T01:57:04.712Z,95935.13
2022-11-21T01:59:39.947Z,95945.94
2022-11-21T02:02:10.781Z,95940.03
2022-11-21T02:04:39.040Z,95934.56
2022-11-21T02:07:07.058Z,95940.03
2022-11-21T02:09:37.407Z,95939.31
2022-11-21T02:12:21.723Z,95944.63
2022-11-21T02:14:48.539Z,95946.41
2022-11-21T02:17:18.958Z,95946.31
2022-11-21T02:20:01.700Z,95943.78
2022-11-21T02:22:39.118Z,95940.97
2022-11-21T02:25:11.757Z,95940.25
2022-11-21T02:27:39.157Z,95950.78
2022-11-21T02:30:08.571Z,95951.34
2022-11-21T02:32:48.442Z,95951.78
2022-11-21T02:35:17.561Z,95940.75
2022-11-21T02:37:47.399Z,95940.69
2022-11-21T02:40:25.520Z,95943.31
2022-11-21T02:43:13.164Z,95942.44
2022-11-21T02:45:42.511Z,95946.94
2022-11-21T02:48:09.928Z,95947.84
2022-11-21T02:50:39.548Z,95946.41
2022-11-21T02:53:08.976Z,95933.91
2022-11-21T02:55:35.612Z,95935.69
2022-11-21T02:58:05.190Z,95937.16
2022-11-21T03:00:33.903Z,95940.81
2022-11-21T03:03:00.526Z,95944.47
2022-11-21T03:05:27.643Z,95940.81
2022-11-21T03:07:54.300Z,95943.53
2022-11-21T03:10:20.905Z,95944.38
2022-11-21T03:12:47.601Z,95943.53
2022-11-21T03:15:16.258Z,95944.81
2022-11-21T03:17:43.528Z,95944.47
2022-11-21T03:20:10.691Z,95950.41
2022-11-21T03:22:37.310Z,95950.31
2022-11-21T03:25:04.177Z,95945.66
2022-11-21T03:27:31.010Z,95947.59
2022-11-21T03:29:57.614Z,95955.72
2022-11-21T03:32:24.274Z,95943.63
2022-11-21T03:34:50.854Z,95952.66
2022-11-21T03:37:17.462Z,95950.16
2022-11-21T03:39:44.053Z,95951.91
2022-11-21T03:42:10.672Z,95947.81
2022-11-21T03:44:37.251Z,95952.28
2022-11-21T03:47:03.937Z,95955.81
2022-11-21T03:49:30.519Z,95957.59
2022-11-21T03:51:57.100Z,95953.31
2022-11-21T03:54:23.689Z,95957.59
2022-11-21T03:56:50.251Z,95959.06
2022-11-21T03:59:16.869Z,95960.28
2022-11-21T04:01:43.502Z,95958.34
2022-11-21T04:04:10.150Z,95959.06
2022-11-21T04:06:36.734Z,95959.91
2022-11-21T04:09:03.691Z,95962.72
2022-11-21T04:11:30.255Z,95963.28
2022-11-21T04:13:56.874Z,95958.81
2022-11-21T04:16:23.455Z,95958.25
2022-11-21T04:18:50.661Z,95960.66
2022-11-21T04:21:17.332Z,95958.97
2022-11-21T04:23:44.086Z,95958.34
2022-11-21T04:26:11.119Z,95957.66
2022-11-21T04:28:38.263Z,95967.28
2022-11-21T04:31:10.332Z,95970.81
2022-11-21T04:33:39.257Z,95976.22
2022-11-21T04:36:08.224Z,95968.13
2022-11-21T04:38:34.834Z,95964.41
2022-11-21T04:41:01.448Z,95962.63
2022-11-21T04:43:28.079Z,95968.47
2022-11-21T04:45:54.665Z,95967.28
2022-11-21T04:48:21.279Z,95966.13
2022-11-21T04:50:47.897Z,95962.59
2022-11-21T04:53:14.540Z,95972.09
2022-11-21T04:55:41.126Z,95981.41
2022-11-21T04:58:07.723Z,95970.13
2022-11-21T05:00:34.775Z,95971.59
2022-11-21T05:03:05.828Z,95970.78
2022-11-21T05:05:33.357Z,95968.16
2022-11-21T05:08:00.578Z,95972.28
2022-11-21T05:10:27.266Z,95962.66
2022-11-21T05:13:19.080Z,95964.34
2022-11-21T05:15:46.228Z,95961.63
2022-11-21T05:18:13.126Z,95959.75
2022-11-21T05:20:39.793Z,95963.31
2022-11-21T05:23:06.650Z,95954.63
2022-11-21T05:25:33.393Z,95954.44
2022-11-21T05:28:00.020Z,95948.38
2022-11-21T05:30:26.672Z,95944.81
2022-11-21T05:32:53.385Z,95948.56
2022-11-21T05:35:20.072Z,95947.53
2022-11-21T05:37:46.802Z,95953.59
2022-11-21T05:40:13.493Z,95951.75
2022-11-21T05:43:01.114Z,95956.13
2022-11-21T05:45:27.746Z,95959.47
2022-11-21T05:47:54.315Z,95948.19
2022-11-21T05:50:20.914Z,95948.38
2022-11-21T05:52:47.527Z,95944.94
2022-11-21T05:55:14.150Z,95957.34
2022-11-21T05:57:41.294Z,95959.22
2022-11-21T06:00:08.719Z,95959.41
2022-11-21T06:02:53.659Z,95955.22
2022-11-21T06:05:20.484Z,95959.03
2022-11-21T06:07:47.137Z,95958.19
2022-11-21T06:10:13.767Z,95960.34
2022-11-21T06:12:40.332Z,95959.59
2022-11-21T06:15:07.532Z,95961.47
2022-11-21T06:17:34.097Z,95954.47
2022-11-21T06:20:00.811Z,95951.03
2022-11-21T06:22:27.498Z,95953.66
2022-11-21T06:24:54.109Z,95961.38
2022-11-21T06:27:20.759Z,95950.84
2022-11-21T06:29:47.346Z,95951.75
2022-11-21T06:32:14.059Z,95943.94
2022-11-21T06:34:40.753Z,95944.41
2022-11-21T06:37:07.520Z,95948.13
2022-11-21T06:39:34.175Z,95939.19
2022-11-21T06:42:01.862Z,95938.50
2022-11-21T06:44:28.837Z,95936.66
2022-11-21T06:46:55.675Z,95938.13
2022-11-21T06:49:22.363Z,95938.97
2022-11-21T06:51:49.027Z,95933.66
2022-11-21T06:54:17.026Z,95938.69
2022-11-21T06:56:44.196Z,95941.94
2022-11-21T06:59:10.935Z,95940.16
2022-11-21T07:01:37.730Z,95954.72
2022-11-21T07:04:04.718Z,95949.28
2022-11-21T07:06:31.360Z,95953.22
2022-11-21T07:09:30.914Z,95960.78
2022-11-21T07:11:44.613Z,95957.50
2022-11-21T07:14:11.312Z,95959.94
2022-11-21T07:16:38.155Z,95957.22
2022-11-21T07:19:04.791Z,95962.88
2022-11-21T07:21:31.350Z,95972.75
2022-11-21T07:23:57.936Z,95976.59
2022-11-21T07:26:24.522Z,95971.81
2022-11-21T07:28:51.110Z,95962.31
2022-11-21T07:31:17.745Z,95969.09
2022-11-21T07:33:44.422Z,95967.31
2022-11-21T07:36:12.180Z,95958.75
2022-11-21T07:38:38.881Z,95955.09
2022-11-21T07:41:05.463Z,95957.22
2022-11-21T07:43:32.112Z,95956.06
2022-11-21T07:45:58.727Z,95953.91
2022-11-21T07:48:25.358Z,95960.31
2022-11-21T07:50:51.996Z,95955.31
2022-11-21T07:53:18.642Z,95950.00
2022-11-21T07:55:45.281Z,95955.13
2022-11-21T07:58:13.448Z,95949.69
2022-11-21T08:00:44.507Z,95954.31
2022-11-21T08:03:12.938Z,95949.91
2022-11-21T08:05:41.727Z,95949.72
2022-11-21T08:08:09.709Z,95942.19
2022-11-21T08:10:41.148Z,95943.66
2022-11-21T08:13:07.773Z,95937.25
2022-11-21T08:15:34.380Z,95947.84
2022-11-21T08:18:11.927Z,95949.78
2022-11-21T08:20:38.981Z,95946.84
2022-11-21T08:23:06.678Z,95948.91
2022-11-21T08:25:43.298Z,95945.06
2022-11-21T08:28:11.751Z,95953.06
2022-11-21T08:30:40.216Z,95957.66
2022-11-21T08:33:07.302Z,95956.50
2022-11-21T08:35:37.102Z,95954.13
2022-11-21T08:38:04.263Z,95949.19
2022-11-21T08:40:31.919Z,95939.56
2022-11-21T08:43:00.104Z,95946.50
2022-11-21T08:45:26.812Z,95948.28
2022-11-21T08:47:54.351Z,95935.06
2022-11-21T08:50:22.845Z,95928.06
2022-11-21T08:52:49.508Z,95929.97
2022-11-21T08:55:16.155Z,95938.22
2022-11-21T08:57:43.090Z,95935.28
2022-11-21T09:00:14.490Z,95935.38
2022-11-21T09:02:41.155Z,95939.25
2022-11-21T09:05:08.591Z,95932.03
2022-11-21T09:07:35.813Z,95927.09
2022-11-21T09:10:02.477Z,95933.88
2022-11-21T09:12:29.102Z,95940.03
2022-11-21T09:15:14.071Z,95930.25
2022-11-21T09:17:59.118Z,95925.22
2022-11-21T09:20:26.211Z,95931.16
2022-11-21T09:22:53.141Z,95928.78
2022-11-21T09:25:19.981Z,95931.47
2022-11-21T09:27:47.026Z,95927.72
2022-11-21T09:30:14.154Z,95929.44
2022-11-21T09:32:41.421Z,95926.06
2022-11-21T09:35:08.858Z,95918.09
2022-11-21T09:37:38.375Z,95919.56
2022-11-21T09:40:05.952Z,95911.53
2022-11-21T09:42:44.607Z,95902.78
2022-11-21T09:45:18.307Z,95896.59
2022-11-21T09:47:48.735Z,95897.94
2022-11-21T09:50:15.283Z,95897.94
2022-11-21T09:52:49.618Z,95898.84
2022-11-21T09:55:34.904Z,95887.63
2022-11-21T09:58:11.310Z,95898.97
2022-11-21T10:00:37.981Z,95898.41
2022-11-21T10:03:04.710Z,95904.28
2022-11-21T10:05:43.798Z,95912.66
2022-11-21T10:08:24.937Z,95905.34
2022-11-21T10:10:58.462Z,95899.78
2022-11-21T10:13:40.310Z,95887.63
2022-11-21T10:16:13.126Z,95887.78
2022-11-21T10:18:59.571Z,95892.44
2022-11-21T10:21:56.500Z,95874.53
2022-11-21T10:24:33.113Z,95863.03
2022-11-21T10:27:13.908Z,95860.03
2022-11-21T10:29:53.162Z,95862.78
2022-11-21T10:32:46.011Z,95861.06
2022-11-21T10:35:17.789Z,95854.94
2022-11-21T10:37:52.408Z,95861.38
2022-11-21T10:40:40.004Z,95855.47
2022-11-21T10:43:37.484Z,95848.69
2022-11-21T10:46:04.095Z,95849.41
2022-11-21T10:48:30.668Z,95840.41
2022-11-21T10:51:06.141Z,95837.00
2022-11-21T10:53:51.780Z,95830.44
2022-11-21T10:56:21.819Z,95839.47
2022-11-21T10:58:51.092Z,95831.41
2022-11-21T11:01:21.983Z,95834.22
2022-11-21T11:06:57.467Z,95828.22
2022-11-21T11:09:34.526Z,95820.16
2022-11-21T11:12:23.269Z,95822.94
2022-11-21T11:14:54.822Z,95823.09
2022-11-21T11:17:33.500Z,95805.38
2022-11-21T11:20:26.224Z,95806.06
2022-11-21T11:22:52.814Z,95796.91
2022-11-21T11:25:19.378Z,95792.03
2022-11-21T11:27:45.970Z,95786.25
2022-11-21T11:30:16.547Z,95776.19
2022-11-21T11:32:43.402Z,95767.78
2022-11-21T11:35:12.883Z,95772.38
2022-11-21T11:37:41.910Z,95762.91
2022-11-21T11:40:30.290Z,95761.25
2022-11-21T11:43:30.602Z,95759.34
2022-11-21T11:46:24.704Z,95749.88
2022-11-21T11:49:17.911Z,95750.53
2022-11-21T11:51:55.121Z,95743.63
2022-11-21T11:54:45.332Z,95743.91
2022-11-21T11:57:13.854Z,95733.78
2022-11-21T11:59:48.331Z,95734.88
2022-11-21T12:02:25.352Z,95735.94
2022-11-21T12:05:05.429Z,95730.00
2022-11-21T12:10:33.759Z,95728.81
2022-11-21T12:13:11.250Z,95722.47
2022-11-21T12:15:50.251Z,95716.50
2022-11-21T12:18:19.644Z,95707.06
2022-11-21T12:21:15.274Z,95706.94
2022-11-21T12:23:54.959Z,95696.66
2022-11-21T12:26:43.618Z,95685.25
2022-11-21T12:29:20.355Z,95674.41
2022-11-21T12:32:05.594Z,95671.59
2022-11-21T12:34:59.989Z,95670.72
2022-11-21T12:37:50.864Z,95657.50
2022-11-21T12:40:54.942Z,95640.72
2022-11-21T12:43:51.843Z,95639.31
2022-11-21T12:46:27.964Z,95635.88
2022-11-21T12:49:16.435Z,95633.72
2022-11-21T12:52:07.105Z,95628.13
2022-11-21T12:54:49.546Z,95625.16
2022-11-21T12:57:18.513Z,95620.47
2022-11-21T12:59:47.719Z,95611.97
2022-11-21T13:02:20.182Z,95612.81
2022-11-21T13:04:51.151Z,95608.09
2022-11-21T13:07:19.444Z,95607.50
2022-11-21T13:09:50.974Z,95611.19
2022-11-21T13:12:32.220Z,95602.91
2022-11-21T13:15:13.954Z,95604.00
2022-11-21T13:17:56.128Z,95597.69
2022-11-21T13:20:23.671Z,95588.94
2022-11-21T13:22:51.395Z,95586.25
2022-11-21T13:25:33.073Z,95581.69
2022-11-21T13:28:12.011Z,95566.00
2022-11-21T13:30:52.179Z,95564.19
2022-11-21T13:33:39.530Z,95563.59
2022-11-21T13:36:32.199Z,95555.81
2022-11-21T13:38:58.821Z,95554.81
2022-11-21T13:41:53.255Z,95546.38
2022-11-21T13:44:34.379Z,95538.03
2022-11-21T13:47:05.072Z,95535.03
2022-11-21T13:49:36.772Z,95529.50
2022-11-21T13:52:32.701Z,95522.19
2022-11-21T13:55:28.274Z,95516.16
2022-11-21T13:58:11.868Z,95521.50
2022-11-21T14:01:03.349Z,95514.63
2022-11-21T14:04:06.172Z,95509.88
2022-11-21T14:06:43.300Z,95497.59
2022-11-21T14:09:12.992Z,95492.91
2022-11-21T14:12:02.075Z,95496.00
2022-11-21T14:14:51.110Z,95482.31
2022-11-21T14:17:34.187Z,95474.56
2022-11-21T14:20:13.628Z,95473.25
2022-11-21T14:22:54.258Z,95472.47
2022-11-21T14:25:25.163Z,95473.34
2022-11-21T14:27:54.770Z,95484.72
2022-11-21T14:30:39.560Z,95481.31
2022-11-21T14:33:24.571Z,95492.75
2022-11-21T14:35:59.280Z,95479.91
2022-11-21T14:38:27.523Z,95477.78
2022-11-21T14:41:23.294Z,95460.50
2022-11-21T14:44:03.348Z,95448.66
2022-11-21T14:46:38.788Z,95452.91
2022-11-21T14:49:17.306Z,95446.94
2022-11-21T14:52:06.252Z,95435.41
2022-11-21T14:54:39.549Z,95423.03
2022-11-21T14:57:07.852Z,95403.06
2022-11-21T14:59:44.386Z,95388.91
2022-11-21T15:02:22.568Z,95377.84
2022-11-21T15:04:51.034Z,95370.09
2022-11-21T15:07:31.587Z,95377.94
2022-11-21T15:10:33.777Z,95372.72
2022-11-21T15:12:55.698Z,95361.81
2022-11-21T15:15:28.655Z,95359.53
2022-11-21T15:20:54.208Z,95348.72
2022-11-21T15:23:35.795Z,95339.56
2022-11-21T15:26:02.955Z,95330.28
2022-11-21T15:28:30.621Z,95340.28
2022-11-21T15:31:16.669Z,95324.72
2022-11-21T15:34:27.671Z,95324.59
2022-11-21T15:37:03.500Z,95302.84
2022-11-21T15:39:30.428Z,95300.94
2022-11-21T15:42:32.015Z,95299.28
2022-11-21T15:45:23.846Z,95283.25
2022-11-21T15:47:50.512Z,95288.47
2022-11-21T15:50:17.139Z,95295.47
2022-11-21T15:52:48.963Z,95297.84
2022-11-21T15:55:21.439Z,95290.47
2022-11-21T15:57:14.938Z,95352.19
2022-11-21T15:57:48.332Z,95272.50
2022-11-21T16:00:15.477Z,95273.59
2022-11-21T16:02:42.095Z,95268.81
2022-11-21T16:05:14.091Z,95265.25
2022-11-21T16:07:41.908Z,95253.97
2022-11-21T16:10:17.175Z,95258.38
2022-11-21T16:12:49.377Z,95235.47
2022-11-21T16:15:16.022Z,95237.25
2022-11-21T16:17:42.614Z,95238.81
2022-11-21T16:20:09.547Z,95236.06
2022-11-21T16:22:36.134Z,95238.81
2022-11-21T16:25:02.838Z,95238.94
2022-11-21T16:27:29.610Z,95233.09
2022-11-21T16:29:56.209Z,95228.81
2022-11-21T16:32:25.286Z,95222.31
2022-11-21T16:34:52.068Z,95215.16
2022-11-21T16:37:18.674Z,95212.34
2022-11-21T16:39:51.782Z,95220.88
2022-11-21T16:42:19.559Z,95225.28
2022-11-21T16:44:46.199Z,95219.31
2022-11-21T16:47:14.244Z,95215.53
2022-11-21T16:49:48.183Z,95216.94
2022-11-21T16:52:15.865Z,95217.91
2022-11-21T16:54:42.494Z,95189.31
2022-11-21T16:57:09.470Z,95135.88
2022-11-21T16:59:36.346Z,95115.56
2022-11-21T17:02:03.013Z,95114.84
2022-11-21T17:04:29.980Z,95125.41
2022-11-21T17:06:57.075Z,95119.25
2022-11-21T17:09:23.656Z,95115.56
2022-11-21T17:11:50.374Z,95121.84
2022-11-21T17:14:17.006Z,95124.38
2022-11-21T17:16:43.663Z,95111.88
2022-11-21T17:19:12.378Z,95107.22
2022-11-21T17:21:39.197Z,95103.09
2022-11-21T17:24:06.041Z,95107.88
2022-11-21T17:26:36.668Z,95122.47
2022-11-21T17:29:04.931Z,95131.00
2022-11-21T17:31:32.086Z,95133.72
2022-11-21T17:34:00.823Z,95135.88
2022-11-21T17:36:29.729Z,95134.09
2022-11-21T17:38:56.703Z,95132.06
2022-11-21T17:41:24.882Z,95131.38
2022-11-21T17:43:58.302Z,95134.94
2022-11-21T17:46:26.082Z,95126.50
2022-11-21T17:48:58.463Z,95110.72
2022-11-21T17:51:34.299Z,95132.56
2022-11-21T17:54:01.922Z,95146.44
2022-11-21T17:56:30.792Z,95132.19
2022-11-21T17:58:57.801Z,95136.59
2022-11-21T18:01:25.482Z,95140.75
2022-11-21T18:03:56.706Z,95129.44
2022-11-21T18:06:24.788Z,95130.31
2022-11-21T18:08:51.701Z,95138.38
2022-11-21T18:11:21.440Z,95147.63
2022-11-21T18:13:49.437Z,95143.25
2022-11-21T18:16:22.270Z,95138.25
2022-11-21T18:18:49.724Z,95128.50
2022-11-21T18:21:19.375Z,95139.41
2022-11-21T18:23:47.151Z,95134.19
2022-11-21T18:26:23.231Z,95133.97
2022-11-21T18:29:13.093Z,95131.94
2022-11-21T18:31:38.063Z,95127.31
2022-11-21T18:34:06.769Z,95120.19
2022-11-21T18:36:33.646Z,95129.94
2022-11-21T18:39:07.259Z,95124.56
2022-11-21T18:41:38.867Z,95125.41
2022-11-21T18:44:06.717Z,95122.66
2022-11-21T18:46:35.899Z,95125.41
2022-11-21T18:49:06.519Z,95118.38
2022-11-21T18:51:35.048Z,95121.84
2022-11-21T18:54:10.509Z,95110.31
2022-11-21T18:56:39.042Z,95098.19
2022-11-21T18:59:06.534Z,95099.16
2022-11-21T19:01:35.546Z,95098.19
2022-11-21T19:04:02.366Z,95092.25
2022-11-21T19:06:29.420Z,95083.59
2022-11-21T19:08:57.691Z,95086.56
2022-11-21T19:11:29.710Z,95072.19
2022-11-21T19:13:57.589Z,95075.75
2022-11-21T19:16:25.973Z,95067.91
2022-11-21T19:21:41.616Z,95059.75
2022-11-21T19:24:15.076Z,95057.72
2022-11-21T19:26:42.350Z,95057.00
2022-11-21T19:29:09.833Z,95044.66
2022-11-21T19:31:42.628Z,95040.84
2022-11-21T19:34:11.339Z,95030.38
2022-11-21T19:36:39.394Z,95020.19
2022-11-21T19:39:06.003Z,95016.75
2022-11-21T19:41:32.569Z,95015.78
2022-11-21T19:44:00.538Z,95016.63
2022-11-21T19:46:31.347Z,95006.19
2022-11-21T19:48:59.327Z,95002.34
2022-11-21T19:51:35.630Z,94992.59
2022-11-21T19:54:03.496Z,94998.69
2022-11-21T19:56:30.140Z,95002.22
2022-11-21T19:58:57.401Z,95008.16
2022-11-21T20:01:26.168Z,95001.72
2022-11-21T20:03:58.529Z,95006.47
2022-11-21T20:06:46.523Z,94998.50
2022-11-21T20:09:18.748Z,94995.03
2022-11-21T20:11:47.277Z,94986.13
2022-11-21T20:14:21.092Z,94985.22
2022-11-21T20:16:49.362Z,94977.78
2022-11-21T20:19:18.127Z,94989.88
2022-11-21T20:21:45.742Z,94976.09
2022-11-21T20:24:12.778Z,94974.94
2022-11-21T20:26:40.519Z,94975.19
2022-11-21T20:29:07.174Z,94976.41
2022-11-21T20:31:37.085Z,94980.19
2022-11-21T20:34:10.097Z,94974.66
2022-11-21T20:36:36.836Z,94975.28
2022-11-21T20:39:21.883Z,94978.50
2022-11-21T20:41:48.674Z,94968.28
2022-11-21T20:47:08.383Z,94973.06
2022-11-21T20:49:35.182Z,94971.63
2022-11-21T20:54:48.360Z,94965.72
2022-11-21T20:57:15.699Z,94952.91
2022-11-21T20:59:42.972Z,94965.13
2022-11-21T21:02:12.341Z,94960.03
2022-11-21T21:04:39.300Z,94958.84
2022-11-21T21:07:05.943Z,94948.03
2022-11-21T21:09:32.581Z,94954.22
2022-11-21T21:11:59.177Z,94947.22
2022-11-21T21:14:25.752Z,94940.09
2022-11-21T21:16:52.366Z,94936.91
2022-11-21T21:19:19.455Z,94940.59
2022-11-21T21:21:46.102Z,94947.59
2022-11-21T21:24:13.931Z,94948.19
2022-11-21T21:26:43.936Z,94947.91
2022-11-21T21:29:12.819Z,94941.78
2022-11-21T21:31:40.238Z,94938.56
2022-11-21T21:34:10.080Z,94930.59
2022-11-21T21:36:36.835Z,94927.28
2022-11-21T21:39:04.128Z,94920.53
2022-11-21T21:41:31.767Z,94915.69
2022-11-21T21:43:59.448Z,94904.41
2022-11-21T21:46:27.861Z,94902.41
2022-11-21T21:48:58.178Z,94892.19
2022-11-21T21:51:26.765Z,94898.25
2022-11-21T21:53:55.184Z,94892.88
2022-11-21T21:56:22.806Z,94897.19
2022-11-21T21:58:50.119Z,94886.75
2022-11-21T22:01:18.103Z,94889.44
2022-11-21T22:03:46.235Z,94887.09
2022-11-21T22:06:15.805Z,94880.81
2022-11-21T22:08:43.484Z,94883.41
2022-11-21T22:11:15.697Z,94886.34
2022-11-21T22:13:44.468Z,94889.09
2022-11-21T22:16:12.597Z,94888.00
2022-11-21T22:18:40.536Z,94885.66
2022-11-21T22:21:25.464Z,94885.53
2022-11-21T22:26:39.031Z,94879.97
2022-11-21T22:29:06.415Z,94879.81
2022-11-21T22:31:33.291Z,94874.47
2022-11-21T22:34:00.516Z,94863.19
2022-11-21T22:36:27.181Z,94857.97
2022-11-21T22:38:54.977Z,94850.28
2022-11-21T22:41:24.055Z,94851.34
2022-11-21T22:43:53.411Z,94851.72
2022-11-21T22:46:20.542Z,94856.81
2022-11-21T22:48:48.110Z,94850.78
2022-11-21T22:51:17.956Z,94850.50
2022-11-21T22:53:46.515Z,94846.13
2022-11-21T22:56:15.127Z,94846.84
2022-11-21T22:58:41.763Z,94840.28
2022-11-21T23:01:15.671Z,94854.75
2022-11-21T23:03:43.762Z,94863.28
2022-11-21T23:06:12.563Z,94869.78
2022-11-21T23:08:39.907Z,94869.66
2022-11-21T23:11:11.859Z,94873.78
2022-11-21T23:13:40.318Z,94868.97
2022-11-21T23:16:08.126Z,94866.09
2022-11-21T23:18:35.282Z,94859.66
2022-11-21T23:21:02.966Z,94852.91
2022-11-21T23:23:30.540Z,94846.72
2022-11-21T23:25:57.144Z,94843.69
2022-11-21T23:28:23.735Z,94848.31
2022-11-21T23:30:50.705Z,94843.91
2022-11-21T23:33:18.572Z,94847.34
2022-11-21T23:35:46.238Z,94846.53
2022-11-21T23:38:14.611Z,94858.53
2022-11-21T23:40:41.445Z,94861.97
2022-11-21T23:43:08.137Z,94859.09
2022-11-21T23:45:34.774Z,94862.06
2022-11-21T23:48:01.334Z,94856.16
2022-11-21T23:50:27.943Z,94846.09
2022-11-21T23:52:54.529Z,94845.97
2022-11-21T23:55:21.182Z,94855.91
2022-11-21T23:57:48.882Z,94847.00
